Time;durP1;ratioP1;P1;durP2;ratioP2;P2;SDS_P1;SDS_P2;PMS_P1;PMS_P2;Temp;Humidity;BMP_temperature;BMP_pressure;BME280_temperature;BME280_humidity;BME280_pressure;Samples;Min_cycle;Max_cycle;Signal;HPM_P1;HPM_P2
2023/12/06 00:01:58;;;;;;;47.80;33.00;;;0.00;99.90;;;;;;6319798;28;20188;-61
2023/12/06 00:04:59;;;;;;;44.43;32.03;;;0.00;99.90;;;;;;6289072;28;20274;-61
2023/12/06 00:08:00;;;;;;;46.10;31.03;;;0.00;99.90;;;;;;6286862;28;20220;-60
2023/12/06 00:11:01;;;;;;;43.10;31.10;;;0.00;99.90;;;;;;6293229;28;20192;-61
2023/12/06 00:14:01;;;;;;;43.80;31.33;;;0.00;99.90;;;;;;6280529;28;20211;-61
2023/12/06 00:17:02;;;;;;;45.23;31.00;;;0.00;99.90;;;;;;6289598;28;20190;-60
2023/12/06 00:20:03;;;;;;;43.77;30.77;;;0.00;99.90;;;;;;6300768;28;20192;-60
2023/12/06 00:23:04;;;;;;;44.60;31.70;;;0.00;99.90;;;;;;6293082;28;20199;-60
2023/12/06 00:26:05;;;;;;;44.93;30.93;;;0.00;99.90;;;;;;6289407;28;20192;-60
2023/12/06 00:29:05;;;;;;;47.17;32.23;;;0.00;99.90;;;;;;6288867;28;20193;-60
2023/12/06 00:32:06;;;;;;;44.90;32.23;;;0.00;99.90;;;;;;6273705;28;20280;-60
2023/12/06 00:35:09;;;;;;;47.37;30.57;;;0.00;99.90;;;;;;6302719;28;20215;-60
2023/12/06 00:38:10;;;;;;;44.70;32.37;;;0.00;99.90;;;;;;6313805;28;20216;-60
2023/12/06 00:41:11;;;;;;;46.53;32.10;;;0.00;99.90;;;;;;6282025;28;20188;-59
2023/12/06 00:44:11;;;;;;;47.30;32.53;;;0.00;99.90;;;;;;6273465;28;20232;-59
2023/12/06 00:47:12;;;;;;;42.70;31.53;;;0.00;99.90;;;;;;6275106;28;20192;-59
2023/12/06 00:50:13;;;;;;;43.03;30.80;;;0.00;99.90;;;;;;6278990;28;20246;-60
2023/12/06 00:53:13;;;;;;;46.73;31.00;;;0.00;99.90;;;;;;6281358;28;20255;-59
2023/12/06 00:56:14;;;;;;;42.80;30.87;;;0.00;99.90;;;;;;6283620;28;20188;-59
2023/12/06 00:59:15;;;;;;;46.33;31.97;;;0.00;99.90;;;;;;6273305;28;20764;-59
2023/12/06 01:02:15;;;;;;;45.30;31.43;;;0.00;99.90;;;;;;6298867;28;20192;-59
2023/12/06 01:05:16;;;;;;;44.50;32.43;;;0.00;99.90;;;;;;6296128;28;20263;-59
2023/12/06 01:08:17;;;;;;;43.93;31.20;;;0.00;99.90;;;;;;6287477;28;20197;-60
2023/12/06 01:11:17;;;;;;;42.30;30.47;;;0.00;99.90;;;;;;6289447;28;20189;-59
2023/12/06 01:14:18;;;;;;;43.50;30.93;;;0.00;99.90;;;;;;6286492;28;20212;-59
2023/12/06 01:17:19;;;;;;;44.40;30.40;;;0.00;99.90;;;;;;6281426;28;20192;-59
2023/12/06 01:20:19;;;;;;;46.43;31.07;;;0.00;99.90;;;;;;6268935;28;20184;-59
2023/12/06 01:23:20;;;;;;;44.97;32.63;;;0.00;99.90;;;;;;6299241;28;20195;-59
2023/12/06 01:26:21;;;;;;;48.23;32.93;;;0.00;99.90;;;;;;6269365;28;20189;-59
2023/12/06 01:29:22;;;;;;;44.80;31.20;;;0.00;99.90;;;;;;6304593;28;20219;-59
2023/12/06 01:32:22;;;;;;;44.60;31.63;;;0.00;99.90;;;;;;6281739;28;20214;-59
2023/12/06 01:35:23;;;;;;;48.23;31.50;;;0.00;99.90;;;;;;6284474;28;20211;-60
2023/12/06 01:38:24;;;;;;;44.23;31.47;;;0.00;99.90;;;;;;6275032;28;20279;-59
2023/12/06 01:41:24;;;;;;;48.60;33.33;;;0.00;99.90;;;;;;6268825;28;20214;-59
2023/12/06 01:44:26;;;;;;;49.17;34.50;;;0.00;99.90;;;;;;6292592;28;20239;-59
2023/12/06 01:47:29;;;;;;;48.03;33.87;;;0.00;99.90;;;;;;6301779;28;20230;-59
2023/12/06 01:50:32;;;;;;;48.23;33.90;;;0.00;99.90;;;;;;6293487;28;20191;-59
2023/12/06 01:53:33;;;;;;;49.67;32.87;;;0.00;99.90;;;;;;6317054;28;20204;-59
2023/12/06 01:56:34;;;;;;;49.07;35.53;;;0.00;99.90;;;;;;6273356;28;20214;-59
2023/12/06 01:59:36;;;;;;;52.73;35.63;;;0.00;99.90;;;;;;6272322;28;20184;-59
2023/12/06 02:02:37;;;;;;;48.07;34.87;;;0.00;99.90;;;;;;6277297;28;20216;-59
2023/12/06 02:05:37;;;;;;;51.57;34.70;;;0.00;99.90;;;;;;6286533;28;20188;-59
2023/12/06 02:08:41;;;;;;;52.57;35.93;;;0.00;99.90;;;;;;6264126;28;20187;-59
2023/12/06 02:11:42;;;;;;;51.43;36.13;;;0.00;99.90;;;;;;6304136;28;20179;-59
2023/12/06 02:14:42;;;;;;;54.40;36.20;;;0.00;99.90;;;;;;6283307;28;20245;-60
2023/12/06 02:17:45;;;;;;;48.23;33.97;;;0.00;99.90;;;;;;6278777;28;20180;-59
2023/12/06 02:20:47;;;;;;;52.87;34.00;;;0.00;99.90;;;;;;6285900;28;20217;-59
2023/12/06 02:23:48;;;;;;;50.00;33.10;;;0.00;99.90;;;;;;6292838;28;20224;-59
2023/12/06 02:26:52;;;;;;;54.93;36.77;;;0.00;99.90;;;;;;6300834;28;20192;-59
2023/12/06 02:29:53;;;;;;;44.67;33.77;;;0.00;99.90;;;;;;6286614;28;20216;-59
2023/12/06 02:32:53;;;;;;;52.50;34.60;;;0.00;99.90;;;;;;6289577;28;20222;-59
2023/12/06 02:35:58;;;;;;;53.17;36.13;;;0.00;99.90;;;;;;6284125;28;20220;-59
2023/12/06 02:38:59;;;;;;;50.53;34.27;;;0.00;99.90;;;;;;6313415;28;20280;-59
2023/12/06 02:42:00;;;;;;;49.07;34.07;;;0.00;99.90;;;;;;6300882;28;20228;-59
2023/12/06 02:45:01;;;;;;;49.03;34.27;;;0.00;99.90;;;;;;6281833;28;20271;-59
2023/12/06 02:48:04;;;;;;;48.47;33.97;;;0.00;99.90;;;;;;6293225;28;20260;-59
2023/12/06 02:51:05;;;;;;;50.60;34.70;;;0.00;99.90;;;;;;6296205;28;20196;-59
2023/12/06 02:54:06;;;;;;;51.37;34.40;;;0.00;99.90;;;;;;6279820;28;20216;-59
2023/12/06 02:57:07;;;;;;;49.57;34.00;;;0.00;99.90;;;;;;6297214;28;20183;-60
2023/12/06 03:00:09;;;;;;;49.87;34.73;;;0.00;99.90;;;;;;6286276;28;20189;-59
2023/12/06 03:03:10;;;;;;;51.20;34.70;;;0.00;99.90;;;;;;6305298;28;20192;-60
2023/12/06 03:06:10;;;;;;;50.10;35.53;;;0.00;99.90;;;;;;6307013;28;20221;-59
2023/12/06 03:09:11;;;;;;;48.57;32.77;;;0.00;99.90;;;;;;6287492;28;20275;-60
2023/12/06 03:12:12;;;;;;;47.77;33.50;;;0.00;99.90;;;;;;6295833;28;20253;-60
2023/12/06 03:15:13;;;;;;;46.63;33.13;;;0.00;99.90;;;;;;6294730;28;20223;-60
2023/12/06 03:18:13;;;;;;;43.10;31.40;;;0.00;99.90;;;;;;6317181;28;20192;-61
2023/12/06 03:21:14;;;;;;;48.45;35.85;;;0.00;99.90;;;;;;6284043;28;20711;-61
2023/12/06 03:24:15;;;;;;;46.23;32.57;;;0.00;99.90;;;;;;6285581;28;20195;-60
2023/12/06 03:27:15;;;;;;;46.57;33.50;;;0.00;99.90;;;;;;6298503;28;20199;-60
2023/12/06 03:30:16;;;;;;;47.47;32.53;;;0.00;99.90;;;;;;6272170;28;20184;-60
2023/12/06 03:33:17;;;;;;;47.33;33.00;;;0.00;99.90;;;;;;6297135;28;20227;-61
2023/12/06 03:36:17;;;;;;;47.13;32.70;;;0.00;99.90;;;;;;6291815;28;20183;-60
2023/12/06 03:39:18;;;;;;;47.53;33.60;;;0.00;99.90;;;;;;6273365;28;20183;-60
2023/12/06 03:42:19;;;;;;;43.03;30.17;;;0.00;99.90;;;;;;6288541;28;20217;-60
2023/12/06 03:45:21;;;;;;;46.90;34.10;;;0.00;99.90;;;;;;6292840;28;20272;-61
2023/12/06 03:48:23;;;;;;;43.40;31.67;;;0.00;99.90;;;;;;6288771;28;20220;-60
2023/12/06 03:51:24;;;;;;;46.57;32.73;;;0.00;99.90;;;;;;6275591;28;20196;-61
2023/12/06 03:54:25;;;;;;;50.30;34.77;;;0.00;99.90;;;;;;6288548;28;20240;-61
2023/12/06 03:57:26;;;;;;;46.47;32.40;;;0.00;99.90;;;;;;6326388;28;20201;-61
2023/12/06 04:00:26;;;;;;;43.10;32.37;;;0.00;99.90;;;;;;6293791;28;20193;-61
2023/12/06 04:03:27;;;;;;;42.37;31.03;;;0.00;99.90;;;;;;6286150;28;20261;-60
2023/12/06 04:06:28;;;;;;;47.97;33.37;;;0.00;99.90;;;;;;6301003;28;20193;-61
2023/12/06 04:09:28;;;;;;;47.83;32.23;;;0.00;99.90;;;;;;6283701;28;20261;-61
2023/12/06 04:12:29;;;;;;;42.23;30.30;;;0.00;99.90;;;;;;6292952;28;20292;-60
2023/12/06 04:15:30;;;;;;;46.70;31.93;;;0.00;99.90;;;;;;6269835;28;20216;-60
2023/12/06 04:18:31;;;;;;;46.10;31.67;;;0.00;99.90;;;;;;6311193;28;20195;-60
2023/12/06 04:21:32;;;;;;;44.43;31.37;;;0.00;99.90;;;;;;6268825;28;20192;-60
2023/12/06 04:24:32;;;;;;;46.17;31.77;;;0.00;99.90;;;;;;6282453;28;20217;-60
2023/12/06 04:27:33;;;;;;;44.10;31.07;;;0.00;99.90;;;;;;6281483;28;20192;-60
2023/12/06 04:30:34;;;;;;;46.03;32.07;;;0.00;99.90;;;;;;6272635;28;20201;-60
2023/12/06 04:33:34;;;;;;;44.53;31.47;;;0.00;99.90;;;;;;6280018;28;20221;-60
2023/12/06 04:36:35;;;;;;;47.10;32.80;;;0.00;99.90;;;;;;6285011;28;20203;-60
2023/12/06 04:39:36;;;;;;;41.27;30.70;;;0.00;99.90;;;;;;6264825;28;20275;-60
2023/12/06 04:42:36;;;;;;;44.37;30.93;;;0.00;99.90;;;;;;6297642;28;20278;-60
2023/12/06 04:45:37;;;;;;;39.33;29.33;;;0.00;99.90;;;;;;6280924;28;20238;-60
2023/12/06 04:48:38;;;;;;;45.43;31.37;;;0.00;99.90;;;;;;6294645;28;20192;-60
2023/12/06 04:51:39;;;;;;;41.47;29.80;;;0.00;99.90;;;;;;6288576;28;20188;-60
2023/12/06 04:54:39;;;;;;;43.70;30.80;;;0.00;99.90;;;;;;6275024;28;20266;-61
2023/12/06 04:57:40;;;;;;;41.37;29.60;;;0.00;99.90;;;;;;6269060;28;20270;-61
2023/12/06 05:00:41;;;;;;;39.43;29.43;;;0.10;99.90;;;;;;6298075;28;20198;-60
2023/12/06 05:03:41;;;;;;;38.97;29.10;;;0.00;99.90;;;;;;6292554;28;20237;-60
2023/12/06 05:06:42;;;;;;;42.90;29.93;;;0.00;99.90;;;;;;6285051;28;20234;-60
2023/12/06 05:09:43;;;;;;;43.40;30.33;;;0.00;99.90;;;;;;6269787;28;20202;-62
2023/12/06 05:12:44;;;;;;;42.17;30.97;;;0.00;99.90;;;;;;6293732;28;20211;-60
2023/12/06 05:15:45;;;;;;;38.43;28.63;;;0.10;99.90;;;;;;6287165;28;20226;-60
2023/12/06 05:18:46;;;;;;;44.83;31.67;;;0.10;99.90;;;;;;6331695;28;20252;-60
2023/12/06 05:21:47;;;;;;;39.33;28.37;;;0.10;99.90;;;;;;6269110;28;20185;-62
2023/12/06 05:24:47;;;;;;;42.07;28.53;;;0.10;99.90;;;;;;6285876;28;20228;-62
2023/12/06 05:27:48;;;;;;;41.47;30.77;;;0.10;99.90;;;;;;6284289;28;20203;-62
2023/12/06 05:30:49;;;;;;;38.57;29.27;;;0.10;99.90;;;;;;6292094;28;20197;-62
2023/12/06 05:33:50;;;;;;;36.87;28.77;;;0.10;99.90;;;;;;6287637;28;20288;-62
2023/12/06 05:36:51;;;;;;;40.30;28.53;;;0.10;99.90;;;;;;6294667;28;20241;-62
2023/12/06 05:39:52;;;;;;;43.10;29.73;;;0.20;99.90;;;;;;6289942;28;20197;-62
2023/12/06 05:42:52;;;;;;;41.93;30.13;;;0.20;99.90;;;;;;6270640;28;20243;-61
2023/12/06 05:45:54;;;;;;;41.40;29.83;;;0.10;99.90;;;;;;6284210;28;20192;-62
2023/12/06 05:48:55;;;;;;;42.73;29.50;;;0.20;99.90;;;;;;6298404;28;20203;-62
2023/12/06 05:51:55;;;;;;;47.40;31.77;;;0.20;99.90;;;;;;6274156;28;20356;-62
2023/12/06 05:54:56;;;;;;;45.90;31.50;;;0.20;99.90;;;;;;6293252;28;20278;-63
2023/12/06 05:57:57;;;;;;;46.67;31.90;;;0.20;99.90;;;;;;6280197;28;20189;-63
2023/12/06 06:00:58;;;;;;;47.33;32.73;;;0.20;99.90;;;;;;6295213;28;20185;-63
2023/12/06 06:03:58;;;;;;;44.00;31.40;;;0.20;99.90;;;;;;6264698;28;20185;-64
2023/12/06 06:06:59;;;;;;;44.73;31.03;;;0.20;99.90;;;;;;6284765;28;20190;-63
2023/12/06 06:10:00;;;;;;;38.97;29.03;;;0.20;99.90;;;;;;6283049;28;20202;-63
2023/12/06 06:13:01;;;;;;;45.70;31.50;;;0.20;99.90;;;;;;6275287;28;20254;-63
2023/12/06 06:16:01;;;;;;;44.30;31.67;;;0.20;99.90;;;;;;6289865;28;20186;-62
2023/12/06 06:19:02;;;;;;;39.27;29.63;;;0.20;99.90;;;;;;6289223;28;20213;-61
2023/12/06 06:22:03;;;;;;;40.00;28.13;;;0.20;99.90;;;;;;6293638;28;20275;-62
2023/12/06 06:25:04;;;;;;;39.23;29.57;;;;;;;;;;6311233;28;20198;-61
2023/12/06 06:28:05;;;;;;;42.03;29.43;;;;;;;;;;6299038;28;20190;-61
2023/12/06 06:31:06;;;;;;;46.83;31.20;;;;;;;;;;6296188;28;20193;-61
2023/12/06 06:34:07;;;;;;;45.53;33.50;;;;;;;;;;6311886;28;20203;-62
2023/12/06 06:37:09;;;;;;;42.93;32.00;;;;;;;;;;6322532;28;20244;-61
2023/12/06 06:40:10;;;;;;;42.07;30.53;;;;;;;;;;6313409;28;20189;-61
2023/12/06 06:43:11;;;;;;;46.13;31.00;;;;;;;;;;6319357;28;20240;-61
2023/12/06 06:46:12;;;;;;;44.00;29.33;;;;;;;;;;6289729;28;20201;-61
2023/12/06 06:49:13;;;;;;;43.53;32.07;;;;;;;;;;6284069;28;20280;-61
2023/12/06 06:52:14;;;;;;;43.63;30.07;;;;;;;;;;6315112;28;20192;-61
2023/12/06 06:55:15;;;;;;;37.40;30.37;;;;;;;;;;6302778;28;20296;-61
2023/12/06 06:58:16;;;;;;;36.73;27.80;;;;;;;;;;6312909;28;20193;-61
2023/12/06 07:01:18;;;;;;;38.57;28.27;;;;;;;;;;6294852;28;20203;-61
2023/12/06 07:04:19;;;;;;;40.57;28.37;;;;;;;;;;6293508;28;20189;-60
2023/12/06 07:07:20;;;;;;;36.97;27.77;;;;;;;;;;6305252;28;20231;-61
2023/12/06 07:10:22;;;;;;;37.17;27.70;;;;;;;;;;6307593;28;20195;-61
2023/12/06 07:13:23;;;;;;;37.43;27.07;;;;;;;;;;6301575;28;20269;-61
2023/12/06 07:16:24;;;;;;;40.47;28.30;;;;;;;;;;6291075;28;20643;-61
2023/12/06 07:19:25;;;;;;;35.50;26.23;;;;;;;;;;6295299;28;20200;-61
2023/12/06 07:22:26;;;;;;;40.00;28.30;;;;;;;;;;6287644;28;20288;-61
2023/12/06 07:25:29;;;;;;;32.87;25.90;;;;;;;;;;6304989;28;20192;-60
2023/12/06 07:28:30;;;;;;;35.20;25.40;;;;;;;;;;6303587;28;20283;-61
2023/12/06 07:31:31;;;;;;;38.60;27.80;;;;;;;;;;6299273;28;20196;-61
2023/12/06 07:34:33;;;;;;;36.00;24.80;;;;;;;;;;6306247;28;20211;-61
2023/12/06 07:37:34;;;;;;;32.90;24.47;;;;;;;;;;6310662;28;20254;-61
2023/12/06 07:40:35;;;;;;;35.93;24.70;;;;;;;;;;6291722;28;20196;-61
2023/12/06 07:43:36;;;;;;;35.60;25.20;;;;;;;;;;6291793;28;20236;-61
2023/12/06 07:46:37;;;;;;;30.60;23.67;;;;;;;;;;6295770;28;20195;-61
2023/12/06 07:49:38;;;;;;;32.23;24.83;;;;;;;;;;6301598;28;20210;-61
2023/12/06 07:52:39;;;;;;;38.60;26.40;;;;;;;;;;6283974;28;20196;-61
2023/12/06 07:55:40;;;;;;;39.10;27.47;;;;;;;;;;6320616;28;20227;-61
2023/12/06 07:58:41;;;;;;;39.63;26.47;;;;;;;;;;6303496;28;20187;-61
2023/12/06 08:01:43;;;;;;;37.63;27.33;;;;;;;;;;6288377;28;20217;-61
2023/12/06 08:04:44;;;;;;;42.40;27.90;;;;;;;;;;6313116;28;20188;-61
2023/12/06 08:07:46;;;;;;;41.13;28.67;;;;;;;;;;6307170;28;20195;-61
2023/12/06 08:10:47;;;;;;;46.50;28.20;;;;;;;;;;6303929;28;20225;-61
2023/12/06 08:13:48;;;;;;;43.73;27.43;;;;;;;;;;6292651;28;20212;-61
2023/12/06 08:16:49;;;;;;;46.07;30.20;;;;;;;;;;6286808;28;20192;-61
2023/12/06 08:19:50;;;;;;;43.43;29.37;;;;;;;;;;6293475;28;20197;-61
2023/12/06 08:22:51;;;;;;;39.67;27.67;;;;;;;;;;6306602;28;20188;-61
2023/12/06 08:25:52;;;;;;;46.07;28.70;;;;;;;;;;6296410;28;20196;-60
2023/12/06 08:28:53;;;;;;;41.83;28.33;;;;;;;;;;6296063;28;20261;-61
2023/12/06 08:31:54;;;;;;;39.00;26.77;;;;;;;;;;6304360;28;20188;-61
2023/12/06 08:34:55;;;;;;;36.10;25.70;;;;;;;;;;6292409;28;20216;-61
2023/12/06 08:37:56;;;;;;;40.57;27.00;;;;;;;;;;6290667;28;20190;-61
2023/12/06 08:40:57;;;;;;;39.03;25.80;;;;;;;;;;6312554;28;20199;-61
2023/12/06 08:43:58;;;;;;;40.67;27.10;;;;;;;;;;6270008;28;20245;-61
2023/12/06 08:46:59;;;;;;;41.63;27.57;;;;;;;;;;6255926;28;20198;-61
2023/12/06 08:50:04;;;;;;;37.03;25.93;;;;;;;;;;6283223;28;20185;-61
2023/12/06 08:53:05;;;;;;;39.80;26.77;;;;;;;;;;6273817;28;20186;-61
2023/12/06 08:56:06;;;;;;;39.20;26.97;;;;;;;;;;6250789;28;20198;-61
2023/12/06 08:59:07;;;;;;;40.57;27.30;;;;;;;;;;6262665;28;20200;-61
2023/12/06 09:02:09;;;;;;;38.07;25.03;;;;;;;;;;6252101;28;20244;-61
2023/12/06 09:05:11;;;;;;;37.63;26.27;;;;;;;;;;6269234;28;20198;-61
2023/12/06 09:08:12;;;;;;;36.63;25.27;;;;;;;;;;6251960;28;20194;-61
2023/12/06 09:11:18;;;;;;;37.33;24.50;;;;;;;;;;6256915;28;20193;-61
2023/12/06 09:14:20;;;;;;;36.73;25.23;;;;;;;;;;6274185;28;20296;-61
2023/12/06 09:17:21;;;;;;;35.47;25.17;;;;;;;;;;6252443;28;20266;-61
2023/12/06 09:20:22;;;;;;;34.17;24.63;;;;;;;;;;6265181;28;20197;-61
2023/12/06 09:23:23;;;;;;;40.70;24.60;;;;;;;;;;6269361;28;20188;-61
2023/12/06 09:26:24;;;;;;;39.77;24.33;;;;;;;;;;6264153;28;20275;-61
2023/12/06 09:29:25;;;;;;;36.27;25.20;;;;;;;;;;6249785;28;20221;-61
2023/12/06 09:32:26;;;;;;;36.20;24.90;;;;;;;;;;6264769;28;20216;-61
2023/12/06 09:35:27;;;;;;;33.90;26.23;;;;;;;;;;6255678;28;20210;-61
2023/12/06 09:38:28;;;;;;;35.13;24.00;;;;;;;;;;6265952;28;20278;-61
2023/12/06 09:41:30;;;;;;;34.10;25.27;;;;;;;;;;6242710;28;20253;-61
2023/12/06 09:44:31;;;;;;;32.37;24.63;;;;;;;;;;6304826;28;20327;-61
2023/12/06 09:47:33;;;;;;;36.23;25.87;;;;;;;;;;6280262;28;20200;-61
2023/12/06 09:50:34;;;;;;;34.87;24.47;;;;;;;;;;6291590;28;20190;-62
2023/12/06 09:53:35;;;;;;;39.53;25.53;;;;;;;;;;6274125;28;20220;-61
2023/12/06 09:56:36;;;;;;;33.63;24.20;;;;;;;;;;6298929;28;20219;-62
2023/12/06 09:59:38;;;;;;;35.23;25.07;;;;;;;;;;6293712;28;20324;-61
2023/12/06 10:02:52;;;;;;;31.03;23.80;;;;;;;;;;6298215;28;20189;-62
2023/12/06 10:05:57;;;;;;;34.03;24.70;;;;;;;;;;6299268;28;20186;-62
2023/12/06 10:08:58;;;;;;;36.37;24.67;;;;;;;;;;6289295;28;20222;-62
2023/12/06 10:12:09;;;;;;;37.37;26.70;;;;;;;;;;6303817;28;20246;-62
2023/12/06 10:15:10;;;;;;;36.00;24.90;;;;;;;;;;6313647;28;20216;-62
2023/12/06 10:18:11;;;;;;;34.67;24.30;;;;;;;;;;6282325;28;20227;-62
2023/12/06 10:21:13;;;;;;;34.53;23.60;;;;;;;;;;6272378;28;20221;-62
2023/12/06 10:24:14;;;;;;;32.77;23.83;;;;;;;;;;6268198;28;20208;-62
2023/12/06 10:27:15;;;;;;;37.07;25.33;;;;;;;;;;6288220;28;20193;-61
2023/12/06 10:30:23;;;;;;;33.93;25.30;;;;;;;;;;6289747;28;20197;-62
2023/12/06 10:33:26;;;;;;;42.53;26.40;;;;;;;;;;6282307;28;20213;-62
2023/12/06 10:36:28;;;;;;;37.27;26.23;;;;;;;;;;6313288;28;20196;-62
2023/12/06 10:39:29;;;;;;;35.33;25.73;;;;;;;;;;6300284;28;20223;-62
2023/12/06 10:42:33;;;;;;;38.23;25.83;;;;;;;;;;6308673;28;20230;-62
2023/12/06 10:45:35;;;;;;;39.80;26.73;;;;;;;;;;6310593;28;20192;-63
2023/12/06 10:48:36;;;;;;;39.00;25.47;;;;;;;;;;6302701;28;20192;-63
2023/12/06 10:51:37;;;;;;;38.73;26.43;;;;;;;;;;6297971;28;20193;-63
2023/12/06 10:54:44;;;;;;;38.30;26.63;;;;;;;;;;6314755;28;20308;-62
2023/12/06 10:57:47;;;;;;;37.20;26.33;;;;;;;;;;6314543;28;20184;-63
2023/12/06 11:00:48;;;;;;;42.33;28.10;;;;;;;;;;6315467;28;20234;-63
2023/12/06 11:03:50;;;;;;;41.83;28.27;;;;;;;;;;6309581;28;20188;-63
2023/12/06 11:07:10;;;;;;;34.87;24.77;;;;;;;;;;6288543;28;20192;-63
2023/12/06 11:10:35;;;;;;;38.27;28.20;;;;;;;;;;6306689;28;20241;-63
2023/12/06 11:13:39;;;;;;;43.57;27.03;;;;;;;;;;6273905;28;20224;-63
2023/12/06 11:16:56;;;;;;;40.23;27.57;;;;;;;;;;6330213;28;20247;-63
2023/12/06 11:19:57;;;;;;;36.23;28.00;;;;;;;;;;6327705;28;20184;-63
2023/12/06 11:22:58;;;;;;;39.03;26.83;;;;;;;;;;6288801;28;20227;-64
2023/12/06 11:26:00;;;;;;;38.97;27.37;;;;;;;;;;6303523;28;20258;-63
2023/12/06 11:29:02;;;;;;;37.13;27.03;;;;;;;;;;6284354;28;20224;-63
2023/12/06 11:32:04;;;;;;;38.73;25.97;;;;;;;;;;6301288;28;20274;-63
2023/12/06 11:35:07;;;;;;;39.77;28.30;;;;;;;;;;6293481;28;20220;-63
2023/12/06 11:38:08;;;;;;;38.63;28.13;;;;;;;;;;6323904;28;20198;-64
2023/12/06 11:41:15;;;;;;;46.53;28.90;;;;;;;;;;6304751;28;20201;-64
2023/12/06 11:44:17;;;;;;;38.73;27.43;;;;;;;;;;6306451;28;20261;-63
2023/12/06 11:47:24;;;;;;;46.37;28.67;;;;;;;;;;6312012;28;20237;-63
2023/12/06 11:50:25;;;;;;;45.53;29.97;;;;;;;;;;6305019;28;20220;-64
2023/12/06 11:53:30;;;;;;;41.90;28.97;;;;;;;;;;6285258;28;20212;-63
2023/12/06 11:56:31;;;;;;;39.03;28.60;;;;;;;;;;6325566;28;20204;-64
2023/12/06 11:59:33;;;;;;;39.10;29.73;;;;;;;;;;6289396;28;20215;-64
2023/12/06 12:02:34;;;;;;;37.53;28.50;;;;;;;;;;6313804;28;20185;-63
2023/12/06 12:05:35;;;;;;;38.43;28.27;;;;;;;;;;6302597;28;20219;-63
2023/12/06 12:08:36;;;;;;;40.20;26.90;;;;;;;;;;6304454;28;20245;-64
2023/12/06 12:11:37;;;;;;;37.33;27.40;;;;;;;;;;6279970;28;20206;-64
2023/12/06 12:14:38;;;;;;;39.60;28.00;;;;;;;;;;6311035;28;20245;-64
2023/12/06 12:17:40;;;;;;;36.20;27.00;;;;;;;;;;6296220;28;20195;-64
2023/12/06 12:20:41;;;;;;;43.20;29.87;;;;;;;;;;6283482;28;20192;-64
2023/12/06 12:23:42;;;;;;;38.03;29.50;;;;;;;;;;6289931;28;20749;-64
2023/12/06 12:26:43;;;;;;;36.10;26.67;;;;;;;;;;6289725;28;20196;-63
2023/12/06 12:29:44;;;;;;;37.33;28.13;;;;;;;;;;6311224;28;20196;-64
2023/12/06 12:32:48;;;;;;;38.07;26.37;;;;;;;;;;6307417;28;20218;-61
2023/12/06 12:35:49;;;;;;;35.20;26.10;;;;;;;;;;6300355;28;20216;-62
2023/12/06 12:38:50;;;;;;;37.07;27.30;;;;;;;;;;6291768;28;20188;-62
2023/12/06 12:41:52;;;;;;;38.87;28.30;;;;;;;;;;6309558;28;20192;-61
2023/12/06 12:44:54;;;;;;;36.73;26.30;;;;;;;;;;6281457;28;20209;-62
2023/12/06 12:47:55;;;;;;;33.53;26.37;;;0.20;99.90;;;;;;6310571;28;20220;-62
2023/12/06 12:51:13;;;;;;;34.27;26.03;;;;;;;;;;6273935;28;20205;-62
2023/12/06 12:54:17;;;;;;;39.90;27.83;;;;;;;;;;6299430;28;20220;-62
2023/12/06 12:57:18;;;;;;;39.70;27.53;;;;;;;;;;6305877;28;20277;-62
2023/12/06 13:00:20;;;;;;;35.67;26.23;;;;;;;;;;6280487;28;20245;-63
2023/12/06 13:03:22;;;;;;;31.53;24.17;;;;;;;;;;6286067;28;20196;-62
2023/12/06 13:06:23;;;;;;;29.73;22.13;;;;;;;;;;6303095;28;20189;-62
2023/12/06 13:09:24;;;;;;;33.30;23.90;;;;;;;;;;6282957;28;20196;-61
2023/12/06 13:12:25;;;;;;;30.17;23.97;;;;;;;;;;6288796;28;20195;-62
2023/12/06 13:15:26;;;;;;;34.30;24.33;;;;;;;;;;6302115;28;20222;-61
2023/12/06 13:18:29;;;;;;;32.17;24.07;;;;;;;;;;6290607;28;20217;-62
2023/12/06 13:21:32;;;;;;;28.60;22.97;;;;;;;;;;6295966;28;20193;-62
2023/12/06 13:24:33;;;;;;;33.00;23.87;;;;;;;;;;6297123;28;20192;-62
2023/12/06 13:27:34;;;;;;;33.60;24.17;;;;;;;;;;6321626;28;20194;-62
2023/12/06 13:30:36;;;;;;;31.27;23.43;;;;;;;;;;6305254;28;20191;-61
2023/12/06 13:33:37;;;;;;;33.63;25.27;;;;;;;;;;6305928;28;20236;-62
2023/12/06 13:36:38;;;;;;;33.63;24.40;;;;;;;;;;6277727;28;20216;-62
2023/12/06 13:39:40;;;;;;;35.10;23.53;;;;;;;;;;6290778;28;20189;-62
2023/12/06 13:42:41;;;;;;;32.47;24.30;;;;;;;;;;6296378;28;20288;-62
2023/12/06 13:45:43;;;;;;;38.20;24.17;;;;;;;;;;6300139;28;20200;-61
2023/12/06 13:48:44;;;;;;;26.90;21.57;;;;;;;;;;6301539;28;20199;-61
2023/12/06 13:51:46;;;;;;;30.37;21.97;;;;;;;;;;6279325;28;20323;-61
2023/12/06 13:54:47;;;;;;;29.77;22.43;;;;;;;;;;6298870;28;20243;-62
2023/12/06 13:57:48;;;;;;;29.20;21.10;;;;;;;;;;6301234;28;20216;-61
2023/12/06 14:00:49;;;;;;;35.27;22.37;;;;;;;;;;6286284;28;20196;-62
2023/12/06 14:03:55;;;;;;;29.37;22.50;;;;;;;;;;6280754;28;20268;-62
2023/12/06 14:06:56;;;;;;;28.73;22.13;;;;;;;;;;6295982;28;20196;-62
2023/12/06 14:09:58;;;;;;;30.33;21.63;;;;;;;;;;6284392;28;20206;-62
2023/12/06 14:12:59;;;;;;;27.73;21.10;;;;;;;;;;6291057;28;20200;-61
2023/12/06 14:16:00;;;;;;;35.10;22.33;;;;;;;;;;6294282;28;20207;-61
2023/12/06 14:19:01;;;;;;;38.13;22.27;;;;;;;;;;6298061;28;20198;-62
2023/12/06 14:22:02;;;;;;;29.30;22.27;;;;;;;;;;6302828;28;20191;-62
2023/12/06 14:25:04;;;;;;;32.33;22.50;;;;;;;;;;6286411;28;20188;-63
2023/12/06 14:28:05;;;;;;;31.33;22.73;;;;;;;;;;6299438;28;20198;-63
2023/12/06 14:31:09;;;;;;;35.87;23.50;;;;;;;;;;6311030;28;20188;-63
2023/12/06 14:34:10;;;;;;;32.60;22.50;;;;;;;;;;6302066;28;20216;-64
2023/12/06 14:37:11;;;;;;;29.73;21.07;;;;;;;;;;6290534;28;20197;-64
2023/12/06 14:40:16;;;;;;;28.93;22.10;;;;;;;;;;6285729;28;20206;-63
2023/12/06 14:43:22;;;;;;;28.83;21.97;;;;;;;;;;6287168;28;20235;-63
2023/12/06 14:46:23;;;;;;;31.40;23.00;;;;;;;;;;6286367;28;20239;-62
2023/12/06 14:49:24;;;;;;;31.00;22.00;;;;;;;;;;6305642;28;20198;-65
2023/12/06 14:52:25;;;;;;;28.83;21.77;;;;;;;;;;6293645;28;20208;-63
2023/12/06 14:55:26;;;;;;;33.67;22.27;;;;;;;;;;6293405;28;20258;-63
2023/12/06 14:58:28;;;;;;;31.27;22.20;;;;;;;;;;6288627;28;20189;-63
2023/12/06 15:01:35;;;;;;;27.53;20.20;;;;;;;;;;6304730;28;20210;-62
2023/12/06 15:04:36;;;;;;;30.83;21.47;;;;;;;;;;6303681;28;20193;-62
2023/12/06 15:07:37;;;;;;;33.53;21.80;;;;;;;;;;6303603;28;20199;-62
2023/12/06 15:10:38;;;;;;;30.20;20.93;;;;;;;;;;6302419;28;20279;-62
2023/12/06 15:13:39;;;;;;;32.27;21.67;;;;;;;;;;6300117;28;20208;-63
2023/12/06 15:16:41;;;;;;;32.23;22.07;;;;;;;;;;6291500;28;20188;-63
2023/12/06 15:19:44;;;;;;;35.47;22.77;;;;;;;;;;6283972;28;20264;-62
2023/12/06 15:22:45;;;;;;;28.53;20.53;;;;;;;;;;6296097;28;20216;-62
2023/12/06 15:25:46;;;;;;;30.73;21.73;;;;;;;;;;6316127;28;20217;-62
2023/12/06 15:28:47;;;;;;;30.87;20.53;;;;;;;;;;6286106;28;20197;-61
2023/12/06 15:31:48;;;;;;;28.00;21.63;;;;;;;;;;6293082;28;20214;-61
2023/12/06 15:34:53;;;;;;;30.83;20.87;;;;;;;;;;6286082;28;20270;-61
2023/12/06 15:37:54;;;;;;;30.00;22.23;;;;;;;;;;6288969;28;20193;-62
2023/12/06 15:40:55;;;;;;;27.67;20.13;;;;;;;;;;6295458;28;20199;-62
2023/12/06 15:43:56;;;;;;;33.50;22.40;;;;;;;;;;6286298;28;20244;-63
2023/12/06 15:46:57;;;;;;;29.20;19.33;;;;;;;;;;6289602;28;20234;-64
2023/12/06 15:49:58;;;;;;;27.87;21.43;;;;;;;;;;6296886;28;20247;-65
2023/12/06 15:52:59;;;;;;;28.17;20.33;;;;;;;;;;6301951;28;20224;-66
2023/12/06 15:56:00;;;;;;;28.27;21.13;;;;;;;;;;6293902;28;20216;-67
2023/12/06 15:59:01;;;;;;;29.77;20.93;;;;;;;;;;6301549;28;20200;-68
2023/12/06 16:02:02;;;;;;;30.10;20.73;;;;;;;;;;6280826;28;20196;-65
2023/12/06 16:05:03;;;;;;;32.40;22.43;;;;;;;;;;6282949;28;20299;-64
2023/12/06 16:08:04;;;;;;;29.53;21.17;;;;;;;;;;6285898;28;20223;-62
2023/12/06 16:11:06;;;;;;;31.20;22.97;;;;;;;;;;6315065;28;20203;-61
2023/12/06 16:14:07;;;;;;;31.97;22.00;;;;;;;;;;6304449;28;20264;-62
2023/12/06 16:17:10;;;;;;;30.73;23.93;;;;;;;;;;6287216;28;20196;-62
2023/12/06 16:20:12;;;;;;;33.90;23.50;;;;;;;;;;6280107;28;20209;-65
2023/12/06 16:23:13;;;;;;;33.37;25.43;;;;;;;;;;6309024;28;20187;-65
2023/12/06 16:26:14;;;;;;;33.57;23.43;;;;;;;;;;6304616;28;20259;-65
2023/12/06 16:29:15;;;;;;;32.70;23.67;;;;;;;;;;6303850;28;20193;-65
2023/12/06 16:32:16;;;;;;;32.23;24.03;;;;;;;;;;6301004;28;20192;-63
2023/12/06 16:35:19;;;;;;;35.17;23.27;;;;;;;;;;6305046;28;20298;-63
2023/12/06 16:38:20;;;;;;;37.30;23.50;;;;;;;;;;6305277;28;20214;-62
2023/12/06 16:41:21;;;;;;;33.83;24.03;;;;;;;;;;6287887;28;20211;-62
2023/12/06 16:44:22;;;;;;;34.70;23.43;;;;;;;;;;6280302;28;20274;-62